Decoded Metar for KMJX ( in _UNIDENTIFIED) (IATA:N/A) | Meteo·Mobile Aviation Weather
aviador You're here:

KMJX Decoded Metar

in _UNIDENTIFIED
Report Time2018-09-24 06:56:00
UTC Time2018-09-24 07:57:15
Flight Rules mvfr MVFR
Wind070° at 03 kt
W.Decomp.*RWY 06: 2.8 kt HW 1.1 kt RCW
W.Rank070° ranks 19
Current wind is below 070° avg. (6.7)
Visibility9999 m
Phenomena:Light Rain
Clouds:Overcast 020 Hf
Ceiling2,000 ft
Temp16°C (ISA +1)
Dew Point16°C (100% RH)
QNH1026 hPa
Density Alt23 ft
Elevation82 ft
Report Wrong Elevation
Raw Report
KMJX 240656Z AUTO 07003KT 10SM -RA OVC020 16/16 A3029 RMK AO2
SLP263 P0004 T01610161=

Extra information for KMJX:More info

Metar Taf Metar & Taf Last 4 Metars F.Rules Stats Wind Profile Meteogram Temp Stats Metar ALERT Operation Metar Decoded Social comments